sensor_id;sensor_type;location;lat;lon;timestamp;P1;durP1;ratioP1;P2;durP2;ratioP2
65831;SDS011;52593;42.648;23.332;2023-11-22T00:00:12;26.00;;;10.63;;
65831;SDS011;52593;42.648;23.332;2023-11-22T00:02:38;26.23;;;10.70;;
65831;SDS011;52593;42.648;23.332;2023-11-22T00:05:04;26.50;;;10.35;;
65831;SDS011;52593;42.648;23.332;2023-11-22T00:07:31;25.35;;;11.02;;
65831;SDS011;52593;42.648;23.332;2023-11-22T00:09:57;23.10;;;9.95;;
65831;SDS011;52593;42.648;23.332;2023-11-22T00:12:23;25.23;;;10.57;;
65831;SDS011;52593;42.648;23.332;2023-11-22T00:14:49;23.00;;;10.13;;
65831;SDS011;52593;42.648;23.332;2023-11-22T00:17:15;24.60;;;10.02;;
65831;SDS011;52593;42.648;23.332;2023-11-22T00:19:44;25.83;;;10.23;;
65831;SDS011;52593;42.648;23.332;2023-11-22T00:22:12;23.17;;;9.95;;
65831;SDS011;52593;42.648;23.332;2023-11-22T00:24:41;23.88;;;9.90;;
65831;SDS011;52593;42.648;23.332;2023-11-22T00:27:07;21.00;;;8.00;;
65831;SDS011;52593;42.648;23.332;2023-11-22T00:29:33;23.23;;;9.17;;
65831;SDS011;52593;42.648;23.332;2023-11-22T00:31:59;21.85;;;9.68;;
65831;SDS011;52593;42.648;23.332;2023-11-22T00:34:25;24.45;;;9.30;;
65831;SDS011;52593;42.648;23.332;2023-11-22T00:36:51;26.63;;;9.40;;
65831;SDS011;52593;42.648;23.332;2023-11-22T00:39:17;23.95;;;9.05;;
65831;SDS011;52593;42.648;23.332;2023-11-22T00:41:47;20.17;;;8.63;;
65831;SDS011;52593;42.648;23.332;2023-11-22T00:44:13;20.27;;;9.27;;
65831;SDS011;52593;42.648;23.332;2023-11-22T00:46:38;23.70;;;9.87;;
65831;SDS011;52593;42.648;23.332;2023-11-22T00:49:04;23.80;;;9.40;;
65831;SDS011;52593;42.648;23.332;2023-11-22T00:51:30;26.10;;;9.75;;
65831;SDS011;52593;42.648;23.332;2023-11-22T00:53:56;25.00;;;11.07;;
65831;SDS011;52593;42.648;23.332;2023-11-22T00:56:24;22.38;;;10.45;;
65831;SDS011;52593;42.648;23.332;2023-11-22T00:58:49;20.75;;;9.38;;
65831;SDS011;52593;42.648;23.332;2023-11-22T01:01:18;21.63;;;10.27;;
65831;SDS011;52593;42.648;23.332;2023-11-22T01:03:44;22.45;;;10.15;;
65831;SDS011;52593;42.648;23.332;2023-11-22T01:06:12;24.90;;;10.60;;
65831;SDS011;52593;42.648;23.332;2023-11-22T01:08:38;22.60;;;10.00;;
65831;SDS011;52593;42.648;23.332;2023-11-22T01:11:04;22.20;;;9.47;;
65831;SDS011;52593;42.648;23.332;2023-11-22T01:13:31;26.63;;;10.23;;
65831;SDS011;52593;42.648;23.332;2023-11-22T01:16:05;25.17;;;10.73;;
65831;SDS011;52593;42.648;23.332;2023-11-22T01:18:34;28.02;;;10.40;;
65831;SDS011;52593;42.648;23.332;2023-11-22T01:21:00;25.77;;;9.53;;
65831;SDS011;52593;42.648;23.332;2023-11-22T01:23:26;21.48;;;9.75;;
65831;SDS011;52593;42.648;23.332;2023-11-22T01:25:53;22.88;;;10.15;;
65831;SDS011;52593;42.648;23.332;2023-11-22T01:28:19;20.15;;;9.30;;
65831;SDS011;52593;42.648;23.332;2023-11-22T01:30:44;18.43;;;9.10;;
65831;SDS011;52593;42.648;23.332;2023-11-22T01:33:14;23.50;;;9.85;;
65831;SDS011;52593;42.648;23.332;2023-11-22T01:35:40;21.17;;;9.27;;
65831;SDS011;52593;42.648;23.332;2023-11-22T01:38:06;21.77;;;9.65;;
65831;SDS011;52593;42.648;23.332;2023-11-22T01:40:34;25.13;;;9.17;;
65831;SDS011;52593;42.648;23.332;2023-11-22T01:43:00;21.40;;;8.95;;
65831;SDS011;52593;42.648;23.332;2023-11-22T01:45:28;22.40;;;9.90;;
65831;SDS011;52593;42.648;23.332;2023-11-22T01:47:53;23.30;;;9.57;;
65831;SDS011;52593;42.648;23.332;2023-11-22T01:50:20;20.73;;;9.52;;
65831;SDS011;52593;42.648;23.332;2023-11-22T01:52:46;24.73;;;9.93;;
65831;SDS011;52593;42.648;23.332;2023-11-22T01:55:15;24.43;;;10.00;;
65831;SDS011;52593;42.648;23.332;2023-11-22T01:57:41;21.35;;;9.27;;
65831;SDS011;52593;42.648;23.332;2023-11-22T02:00:06;24.10;;;9.97;;
65831;SDS011;52593;42.648;23.332;2023-11-22T02:02:33;24.92;;;9.95;;
65831;SDS011;52593;42.648;23.332;2023-11-22T02:04:59;23.80;;;9.43;;
65831;SDS011;52593;42.648;23.332;2023-11-22T02:07:26;20.95;;;9.45;;
65831;SDS011;52593;42.648;23.332;2023-11-22T02:09:52;19.98;;;8.73;;
65831;SDS011;52593;42.648;23.332;2023-11-22T02:12:18;21.67;;;8.93;;
65831;SDS011;52593;42.648;23.332;2023-11-22T02:14:44;23.67;;;9.57;;
65831;SDS011;52593;42.648;23.332;2023-11-22T02:17:10;22.05;;;9.55;;
65831;SDS011;52593;42.648;23.332;2023-11-22T02:19:36;22.42;;;10.02;;
65831;SDS011;52593;42.648;23.332;2023-11-22T02:22:02;21.80;;;9.87;;
65831;SDS011;52593;42.648;23.332;2023-11-22T02:24:27;25.03;;;9.77;;
65831;SDS011;52593;42.648;23.332;2023-11-22T02:26:53;24.37;;;9.13;;
65831;SDS011;52593;42.648;23.332;2023-11-22T02:29:18;23.27;;;10.07;;
65831;SDS011;52593;42.648;23.332;2023-11-22T02:31:45;23.73;;;10.07;;
65831;SDS011;52593;42.648;23.332;2023-11-22T02:34:10;21.07;;;8.90;;
65831;SDS011;52593;42.648;23.332;2023-11-22T02:36:36;23.95;;;9.68;;
65831;SDS011;52593;42.648;23.332;2023-11-22T02:39:02;24.07;;;9.67;;
65831;SDS011;52593;42.648;23.332;2023-11-22T02:41:27;23.40;;;9.77;;
65831;SDS011;52593;42.648;23.332;2023-11-22T02:43:55;22.60;;;9.80;;
65831;SDS011;52593;42.648;23.332;2023-11-22T02:46:20;22.25;;;9.98;;
65831;SDS011;52593;42.648;23.332;2023-11-22T02:48:46;24.37;;;9.63;;
65831;SDS011;52593;42.648;23.332;2023-11-22T02:51:11;24.20;;;10.23;;
65831;SDS011;52593;42.648;23.332;2023-11-22T02:53:39;23.15;;;9.82;;
65831;SDS011;52593;42.648;23.332;2023-11-22T02:56:08;24.00;;;10.20;;
65831;SDS011;52593;42.648;23.332;2023-11-22T02:58:34;24.02;;;10.18;;
65831;SDS011;52593;42.648;23.332;2023-11-22T03:01:00;22.50;;;9.73;;
65831;SDS011;52593;42.648;23.332;2023-11-22T03:03:25;24.27;;;10.00;;
65831;SDS011;52593;42.648;23.332;2023-11-22T03:05:50;21.37;;;9.57;;
65831;SDS011;52593;42.648;23.332;2023-11-22T03:08:16;25.37;;;10.10;;
65831;SDS011;52593;42.648;23.332;2023-11-22T03:10:42;20.27;;;9.35;;
65831;SDS011;52593;42.648;23.332;2023-11-22T03:13:07;22.57;;;9.40;;
65831;SDS011;52593;42.648;23.332;2023-11-22T03:15:35;20.98;;;8.93;;
65831;SDS011;52593;42.648;23.332;2023-11-22T03:18:01;21.63;;;9.45;;
65831;SDS011;52593;42.648;23.332;2023-11-22T03:20:27;20.33;;;8.93;;
65831;SDS011;52593;42.648;23.332;2023-11-22T03:22:52;23.38;;;9.38;;
65831;SDS011;52593;42.648;23.332;2023-11-22T03:25:18;21.90;;;10.00;;
65831;SDS011;52593;42.648;23.332;2023-11-22T03:27:43;20.83;;;8.95;;
65831;SDS011;52593;42.648;23.332;2023-11-22T03:30:09;22.37;;;9.50;;
65831;SDS011;52593;42.648;23.332;2023-11-22T03:32:39;21.17;;;9.63;;
65831;SDS011;52593;42.648;23.332;2023-11-22T03:35:07;22.67;;;9.10;;
65831;SDS011;52593;42.648;23.332;2023-11-22T03:37:33;21.38;;;9.05;;
65831;SDS011;52593;42.648;23.332;2023-11-22T03:39:59;24.53;;;9.17;;
65831;SDS011;52593;42.648;23.332;2023-11-22T03:42:24;22.30;;;9.43;;
65831;SDS011;52593;42.648;23.332;2023-11-22T03:44:51;22.75;;;9.32;;
65831;SDS011;52593;42.648;23.332;2023-11-22T03:47:17;24.13;;;9.50;;
65831;SDS011;52593;42.648;23.332;2023-11-22T03:49:42;21.40;;;8.70;;
65831;SDS011;52593;42.648;23.332;2023-11-22T03:52:09;21.30;;;8.48;;
65831;SDS011;52593;42.648;23.332;2023-11-22T03:54:35;24.10;;;9.30;;
65831;SDS011;52593;42.648;23.332;2023-11-22T03:57:01;24.90;;;9.20;;
65831;SDS011;52593;42.648;23.332;2023-11-22T03:59:27;19.30;;;8.93;;
65831;SDS011;52593;42.648;23.332;2023-11-22T04:01:52;21.67;;;8.77;;
65831;SDS011;52593;42.648;23.332;2023-11-22T04:04:18;17.63;;;8.63;;
65831;SDS011;52593;42.648;23.332;2023-11-22T04:06:44;19.45;;;8.75;;
65831;SDS011;52593;42.648;23.332;2023-11-22T04:09:09;21.97;;;8.47;;
65831;SDS011;52593;42.648;23.332;2023-11-22T04:11:37;18.23;;;8.68;;
65831;SDS011;52593;42.648;23.332;2023-11-22T04:14:03;18.77;;;8.13;;
65831;SDS011;52593;42.648;23.332;2023-11-22T04:16:28;20.85;;;8.52;;
65831;SDS011;52593;42.648;23.332;2023-11-22T04:18:54;20.07;;;8.47;;
65831;SDS011;52593;42.648;23.332;2023-11-22T04:21:19;19.50;;;8.37;;
65831;SDS011;52593;42.648;23.332;2023-11-22T04:23:44;19.90;;;8.57;;
65831;SDS011;52593;42.648;23.332;2023-11-22T04:26:10;20.73;;;8.07;;
65831;SDS011;52593;42.648;23.332;2023-11-22T04:28:35;23.37;;;8.80;;
65831;SDS011;52593;42.648;23.332;2023-11-22T04:31:01;21.17;;;8.80;;
65831;SDS011;52593;42.648;23.332;2023-11-22T04:33:27;19.33;;;8.25;;
65831;SDS011;52593;42.648;23.332;2023-11-22T04:35:55;18.50;;;7.87;;
65831;SDS011;52593;42.648;23.332;2023-11-22T04:38:21;19.95;;;7.82;;
65831;SDS011;52593;42.648;23.332;2023-11-22T04:40:47;20.10;;;8.77;;
65831;SDS011;52593;42.648;23.332;2023-11-22T04:43:13;20.33;;;8.53;;
65831;SDS011;52593;42.648;23.332;2023-11-22T04:45:38;21.85;;;8.90;;
65831;SDS011;52593;42.648;23.332;2023-11-22T04:48:04;20.57;;;9.27;;
65831;SDS011;52593;42.648;23.332;2023-11-22T04:50:31;19.83;;;8.77;;
65831;SDS011;52593;42.648;23.332;2023-11-22T04:52:57;20.27;;;8.37;;
65831;SDS011;52593;42.648;23.332;2023-11-22T04:55:22;22.73;;;9.20;;
65831;SDS011;52593;42.648;23.332;2023-11-22T04:57:48;20.30;;;8.52;;
65831;SDS011;52593;42.648;23.332;2023-11-22T05:00:14;26.73;;;9.13;;
65831;SDS011;52593;42.648;23.332;2023-11-22T05:02:40;24.53;;;10.20;;
65831;SDS011;52593;42.648;23.332;2023-11-22T05:05:06;20.00;;;9.10;;
65831;SDS011;52593;42.648;23.332;2023-11-22T05:07:37;21.13;;;9.77;;
65831;SDS011;52593;42.648;23.332;2023-11-22T05:10:03;20.52;;;8.90;;
65831;SDS011;52593;42.648;23.332;2023-11-22T05:12:30;24.02;;;9.65;;
65831;SDS011;52593;42.648;23.332;2023-11-22T05:14:56;23.73;;;9.47;;
65831;SDS011;52593;42.648;23.332;2023-11-22T05:17:23;20.00;;;9.60;;
65831;SDS011;52593;42.648;23.332;2023-11-22T05:19:49;20.42;;;9.07;;
65831;SDS011;52593;42.648;23.332;2023-11-22T05:22:15;20.97;;;8.83;;
65831;SDS011;52593;42.648;23.332;2023-11-22T05:24:41;22.35;;;9.68;;
65831;SDS011;52593;42.648;23.332;2023-11-22T05:27:07;20.70;;;9.37;;
65831;SDS011;52593;42.648;23.332;2023-11-22T05:29:33;23.65;;;9.70;;
65831;SDS011;52593;42.648;23.332;2023-11-22T05:31:59;20.73;;;9.20;;
65831;SDS011;52593;42.648;23.332;2023-11-22T05:34:25;21.27;;;9.70;;
65831;SDS011;52593;42.648;23.332;2023-11-22T05:36:50;22.40;;;10.88;;
65831;SDS011;52593;42.648;23.332;2023-11-22T05:39:15;30.50;;;13.77;;
65831;SDS011;52593;42.648;23.332;2023-11-22T05:41:42;21.25;;;10.23;;
65831;SDS011;52593;42.648;23.332;2023-11-22T05:44:08;23.00;;;10.10;;
65831;SDS011;52593;42.648;23.332;2023-11-22T05:46:33;21.63;;;10.20;;
65831;SDS011;52593;42.648;23.332;2023-11-22T05:48:59;27.77;;;11.60;;
65831;SDS011;52593;42.648;23.332;2023-11-22T05:51:25;42.13;;;17.20;;
65831;SDS011;52593;42.648;23.332;2023-11-22T05:53:51;33.42;;;13.55;;
65831;SDS011;52593;42.648;23.332;2023-11-22T05:56:16;28.77;;;12.87;;
65831;SDS011;52593;42.648;23.332;2023-11-22T05:58:42;27.27;;;11.77;;
65831;SDS011;52593;42.648;23.332;2023-11-22T06:01:08;23.50;;;10.33;;
65831;SDS011;52593;42.648;23.332;2023-11-22T06:03:34;27.52;;;10.05;;
65831;SDS011;52593;42.648;23.332;2023-11-22T06:06:01;29.10;;;11.27;;
65831;SDS011;52593;42.648;23.332;2023-11-22T06:08:28;184.85;;;43.97;;
65831;SDS011;52593;42.648;23.332;2023-11-22T06:10:53;54.67;;;18.30;;
65831;SDS011;52593;42.648;23.332;2023-11-22T06:13:22;26.17;;;12.15;;
65831;SDS011;52593;42.648;23.332;2023-11-22T06:15:47;28.90;;;11.77;;
65831;SDS011;52593;42.648;23.332;2023-11-22T06:18:13;27.00;;;11.57;;
65831;SDS011;52593;42.648;23.332;2023-11-22T06:20:40;25.90;;;11.00;;
65831;SDS011;52593;42.648;23.332;2023-11-22T06:23:06;20.10;;;9.20;;
65831;SDS011;52593;42.648;23.332;2023-11-22T06:25:31;29.00;;;12.87;;
65831;SDS011;52593;42.648;23.332;2023-11-22T06:27:57;47.72;;;18.05;;
65831;SDS011;52593;42.648;23.332;2023-11-22T06:30:22;23.73;;;10.40;;
65831;SDS011;52593;42.648;23.332;2023-11-22T06:32:50;26.25;;;11.25;;
65831;SDS011;52593;42.648;23.332;2023-11-22T06:35:15;26.27;;;11.60;;
65831;SDS011;52593;42.648;23.332;2023-11-22T06:37:42;22.37;;;10.90;;
65831;SDS011;52593;42.648;23.332;2023-11-22T06:40:09;20.58;;;9.77;;
65831;SDS011;52593;42.648;23.332;2023-11-22T06:42:37;23.55;;;10.70;;
65831;SDS011;52593;42.648;23.332;2023-11-22T06:45:03;106.67;;;29.30;;
65831;SDS011;52593;42.648;23.332;2023-11-22T06:47:31;88.47;;;27.20;;
65831;SDS011;52593;42.648;23.332;2023-11-22T06:49:57;69.57;;;21.98;;
65831;SDS011;52593;42.648;23.332;2023-11-22T06:52:23;53.17;;;18.80;;
65831;SDS011;52593;42.648;23.332;2023-11-22T06:54:49;40.37;;;15.00;;
65831;SDS011;52593;42.648;23.332;2023-11-22T06:57:14;34.20;;;14.37;;
65831;SDS011;52593;42.648;23.332;2023-11-22T06:59:40;30.50;;;13.07;;
65831;SDS011;52593;42.648;23.332;2023-11-22T07:02:06;36.63;;;14.82;;
65831;SDS011;52593;42.648;23.332;2023-11-22T07:04:32;45.30;;;17.50;;
65831;SDS011;52593;42.648;23.332;2023-11-22T07:06:58;43.80;;;17.33;;
65831;SDS011;52593;42.648;23.332;2023-11-22T07:09:23;46.00;;;17.80;;
65831;SDS011;52593;42.648;23.332;2023-11-22T07:11:50;36.75;;;14.75;;
65831;SDS011;52593;42.648;23.332;2023-11-22T07:14:16;30.92;;;13.63;;
65831;SDS011;52593;42.648;23.332;2023-11-22T07:16:42;28.33;;;12.33;;
65831;SDS011;52593;42.648;23.332;2023-11-22T07:19:07;29.57;;;12.63;;
65831;SDS011;52593;42.648;23.332;2023-11-22T07:21:33;27.88;;;12.40;;
65831;SDS011;52593;42.648;23.332;2023-11-22T07:23:59;32.27;;;13.13;;
65831;SDS011;52593;42.648;23.332;2023-11-22T07:26:25;27.02;;;12.40;;
65831;SDS011;52593;42.648;23.332;2023-11-22T07:28:53;31.73;;;12.13;;
65831;SDS011;52593;42.648;23.332;2023-11-22T07:31:19;22.50;;;10.00;;
65831;SDS011;52593;42.648;23.332;2023-11-22T07:33:45;21.75;;;10.95;;
65831;SDS011;52593;42.648;23.332;2023-11-22T07:36:11;24.33;;;11.87;;
65831;SDS011;52593;42.648;23.332;2023-11-22T07:38:40;22.05;;;10.68;;
65831;SDS011;52593;42.648;23.332;2023-11-22T07:41:06;26.63;;;11.73;;
65831;SDS011;52593;42.648;23.332;2023-11-22T07:43:32;30.10;;;14.10;;
65831;SDS011;52593;42.648;23.332;2023-11-22T07:45:57;27.67;;;11.87;;
65831;SDS011;52593;42.648;23.332;2023-11-22T07:48:24;29.38;;;12.90;;
65831;SDS011;52593;42.648;23.332;2023-11-22T07:50:50;28.57;;;13.23;;
65831;SDS011;52593;42.648;23.332;2023-11-22T07:53:17;26.63;;;12.65;;
65831;SDS011;52593;42.648;23.332;2023-11-22T07:55:42;26.20;;;12.20;;
65831;SDS011;52593;42.648;23.332;2023-11-22T07:58:08;27.38;;;12.30;;
65831;SDS011;52593;42.648;23.332;2023-11-22T08:00:34;29.80;;;12.50;;
65831;SDS011;52593;42.648;23.332;2023-11-22T08:03:02;26.30;;;11.32;;
65831;SDS011;52593;42.648;23.332;2023-11-22T08:05:28;23.77;;;11.70;;
65831;SDS011;52593;42.648;23.332;2023-11-22T08:07:54;26.60;;;11.57;;
65831;SDS011;52593;42.648;23.332;2023-11-22T08:10:20;23.80;;;10.70;;
65831;SDS011;52593;42.648;23.332;2023-11-22T08:12:46;24.07;;;11.30;;
65831;SDS011;52593;42.648;23.332;2023-11-22T08:15:13;25.45;;;11.60;;
65831;SDS011;52593;42.648;23.332;2023-11-22T08:17:39;22.42;;;10.50;;
65831;SDS011;52593;42.648;23.332;2023-11-22T08:20:05;25.77;;;11.23;;
65831;SDS011;52593;42.648;23.332;2023-11-22T08:22:38;25.60;;;11.27;;
65831;SDS011;52593;42.648;23.332;2023-11-22T08:25:04;23.80;;;10.93;;
65831;SDS011;52593;42.648;23.332;2023-11-22T08:27:34;22.55;;;11.18;;
65831;SDS011;52593;42.648;23.332;2023-11-22T08:29:59;25.45;;;11.63;;
65831;SDS011;52593;42.648;23.332;2023-11-22T08:32:30;25.05;;;10.60;;
65831;SDS011;52593;42.648;23.332;2023-11-22T08:34:56;26.13;;;11.65;;
65831;SDS011;52593;42.648;23.332;2023-11-22T08:37:22;28.37;;;11.90;;
65831;SDS011;52593;42.648;23.332;2023-11-22T08:39:47;23.17;;;11.30;;
65831;SDS011;52593;42.648;23.332;2023-11-22T08:42:14;25.90;;;11.60;;
65831;SDS011;52593;42.648;23.332;2023-11-22T08:44:39;25.45;;;12.18;;
65831;SDS011;52593;42.648;23.332;2023-11-22T08:47:04;24.37;;;11.23;;
65831;SDS011;52593;42.648;23.332;2023-11-22T08:49:30;24.60;;;11.27;;
65831;SDS011;52593;42.648;23.332;2023-11-22T08:51:56;31.17;;;16.33;;
65831;SDS011;52593;42.648;23.332;2023-11-22T08:54:24;29.50;;;13.02;;
65831;SDS011;52593;42.648;23.332;2023-11-22T08:56:50;24.73;;;11.95;;
65831;SDS011;52593;42.648;23.332;2023-11-22T08:59:15;29.40;;;14.23;;
65831;SDS011;52593;42.648;23.332;2023-11-22T09:01:41;25.80;;;12.18;;
65831;SDS011;52593;42.648;23.332;2023-11-22T09:04:10;26.80;;;11.73;;
65831;SDS011;52593;42.648;23.332;2023-11-22T09:06:36;24.45;;;11.57;;
65831;SDS011;52593;42.648;23.332;2023-11-22T09:09:02;28.03;;;11.60;;
65831;SDS011;52593;42.648;23.332;2023-11-22T09:11:28;24.05;;;11.35;;
65831;SDS011;52593;42.648;23.332;2023-11-22T09:13:53;28.90;;;12.77;;
65831;SDS011;52593;42.648;23.332;2023-11-22T09:16:22;21.02;;;10.35;;
65831;SDS011;52593;42.648;23.332;2023-11-22T09:18:50;25.70;;;10.60;;
65831;SDS011;52593;42.648;23.332;2023-11-22T09:21:15;28.57;;;11.30;;
65831;SDS011;52593;42.648;23.332;2023-11-22T09:23:42;21.23;;;9.38;;
65831;SDS011;52593;42.648;23.332;2023-11-22T09:26:07;22.17;;;9.70;;
65831;SDS011;52593;42.648;23.332;2023-11-22T09:28:33;23.15;;;11.35;;
65831;SDS011;52593;42.648;23.332;2023-11-22T09:30:58;21.80;;;9.90;;
65831;SDS011;52593;42.648;23.332;2023-11-22T09:33:31;24.65;;;10.57;;
65831;SDS011;52593;42.648;23.332;2023-11-22T09:35:57;24.58;;;11.57;;
65831;SDS011;52593;42.648;23.332;2023-11-22T09:38:29;26.50;;;10.57;;
65831;SDS011;52593;42.648;23.332;2023-11-22T09:40:54;26.70;;;12.00;;
65831;SDS011;52593;42.648;23.332;2023-11-22T09:43:21;25.33;;;10.80;;
65831;SDS011;52593;42.648;23.332;2023-11-22T09:45:50;20.65;;;10.32;;
65831;SDS011;52593;42.648;23.332;2023-11-22T09:48:19;24.60;;;11.05;;
65831;SDS011;52593;42.648;23.332;2023-11-22T09:53:36;24.65;;;11.65;;
65831;SDS011;52593;42.648;23.332;2023-11-22T09:56:02;27.73;;;12.30;;
65831;SDS011;52593;42.648;23.332;2023-11-22T09:58:29;28.05;;;12.73;;
65831;SDS011;52593;42.648;23.332;2023-11-22T10:00:57;30.48;;;12.60;;
65831;SDS011;52593;42.648;23.332;2023-11-22T10:03:25;27.42;;;12.57;;
65831;SDS011;52593;42.648;23.332;2023-11-22T10:05:51;30.65;;;13.57;;
65831;SDS011;52593;42.648;23.332;2023-11-22T10:08:18;29.33;;;14.27;;
65831;SDS011;52593;42.648;23.332;2023-11-22T10:10:46;29.17;;;13.07;;
65831;SDS011;52593;42.648;23.332;2023-11-22T10:13:16;28.55;;;14.57;;
65831;SDS011;52593;42.648;23.332;2023-11-22T10:15:42;29.25;;;13.45;;
65831;SDS011;52593;42.648;23.332;2023-11-22T10:18:08;32.50;;;14.40;;
65831;SDS011;52593;42.648;23.332;2023-11-22T10:20:37;28.30;;;13.37;;
65831;SDS011;52593;42.648;23.332;2023-11-22T10:23:07;30.42;;;14.45;;
65831;SDS011;52593;42.648;23.332;2023-11-22T10:25:34;35.28;;;15.13;;
65831;SDS011;52593;42.648;23.332;2023-11-22T10:27:59;28.50;;;14.40;;
65831;SDS011;52593;42.648;23.332;2023-11-22T10:30:27;30.70;;;13.60;;
65831;SDS011;52593;42.648;23.332;2023-11-22T10:32:53;28.92;;;13.60;;
65831;SDS011;52593;42.648;23.332;2023-11-22T10:35:20;27.65;;;13.50;;
65831;SDS011;52593;42.648;23.332;2023-11-22T10:37:47;28.42;;;13.63;;
65831;SDS011;52593;42.648;23.332;2023-11-22T10:40:13;27.60;;;13.00;;
65831;SDS011;52593;42.648;23.332;2023-11-22T10:42:42;26.23;;;13.17;;
65831;SDS011;52593;42.648;23.332;2023-11-22T10:45:11;27.95;;;12.90;;
65831;SDS011;52593;42.648;23.332;2023-11-22T10:47:38;25.88;;;13.70;;
65831;SDS011;52593;42.648;23.332;2023-11-22T10:50:07;30.67;;;12.97;;
65831;SDS011;52593;42.648;23.332;2023-11-22T10:52:37;25.65;;;12.85;;
65831;SDS011;52593;42.648;23.332;2023-11-22T10:55:07;26.67;;;12.70;;
65831;SDS011;52593;42.648;23.332;2023-11-22T10:57:36;27.00;;;13.15;;
65831;SDS011;52593;42.648;23.332;2023-11-22T11:00:08;27.23;;;13.00;;
65831;SDS011;52593;42.648;23.332;2023-11-22T11:02:41;26.13;;;12.67;;
65831;SDS011;52593;42.648;23.332;2023-11-22T11:05:18;24.88;;;12.52;;
65831;SDS011;52593;42.648;23.332;2023-11-22T11:07:53;31.85;;;15.40;;
65831;SDS011;52593;42.648;23.332;2023-11-22T11:10:38;34.33;;;14.73;;
65831;SDS011;52593;42.648;23.332;2023-11-22T11:13:06;33.38;;;14.52;;
65831;SDS011;52593;42.648;23.332;2023-11-22T11:15:31;26.10;;;12.33;;
65831;SDS011;52593;42.648;23.332;2023-11-22T11:17:57;23.33;;;10.95;;
65831;SDS011;52593;42.648;23.332;2023-11-22T11:20:23;24.50;;;11.63;;
65831;SDS011;52593;42.648;23.332;2023-11-22T11:22:49;24.65;;;11.60;;
65831;SDS011;52593;42.648;23.332;2023-11-22T11:25:17;25.98;;;12.07;;
65831;SDS011;52593;42.648;23.332;2023-11-22T11:27:43;25.77;;;12.20;;
65831;SDS011;52593;42.648;23.332;2023-11-22T11:33:13;23.55;;;11.57;;
65831;SDS011;52593;42.648;23.332;2023-11-22T11:35:50;26.33;;;11.65;;
65831;SDS011;52593;42.648;23.332;2023-11-22T11:38:19;24.83;;;11.60;;
65831;SDS011;52593;42.648;23.332;2023-11-22T11:40:46;26.15;;;12.82;;
65831;SDS011;52593;42.648;23.332;2023-11-22T11:43:13;31.92;;;13.18;;
65831;SDS011;52593;42.648;23.332;2023-11-22T11:45:39;29.90;;;13.60;;
65831;SDS011;52593;42.648;23.332;2023-11-22T11:48:11;27.50;;;13.40;;
65831;SDS011;52593;42.648;23.332;2023-11-22T11:50:38;28.45;;;13.00;;
65831;SDS011;52593;42.648;23.332;2023-11-22T11:53:03;27.87;;;13.33;;
65831;SDS011;52593;42.648;23.332;2023-11-22T11:55:29;29.58;;;13.13;;
65831;SDS011;52593;42.648;23.332;2023-11-22T11:57:55;28.27;;;12.80;;
65831;SDS011;52593;42.648;23.332;2023-11-22T12:00:21;28.10;;;13.07;;
65831;SDS011;52593;42.648;23.332;2023-11-22T12:02:49;28.77;;;13.45;;
65831;SDS011;52593;42.648;23.332;2023-11-22T12:05:15;27.27;;;13.25;;
65831;SDS011;52593;42.648;23.332;2023-11-22T12:07:43;26.25;;;13.02;;
65831;SDS011;52593;42.648;23.332;2023-11-22T12:10:09;26.40;;;13.67;;
65831;SDS011;52593;42.648;23.332;2023-11-22T12:12:35;38.35;;;15.65;;
65831;SDS011;52593;42.648;23.332;2023-11-22T12:15:00;33.80;;;15.43;;
65831;SDS011;52593;42.648;23.332;2023-11-22T12:17:26;31.93;;;15.43;;
65831;SDS011;52593;42.648;23.332;2023-11-22T12:20:14;29.42;;;14.38;;
65831;SDS011;52593;42.648;23.332;2023-11-22T12:22:42;25.58;;;13.30;;
65831;SDS011;52593;42.648;23.332;2023-11-22T12:25:10;27.58;;;13.57;;
65831;SDS011;52593;42.648;23.332;2023-11-22T12:27:44;28.90;;;13.13;;
65831;SDS011;52593;42.648;23.332;2023-11-22T12:30:27;26.20;;;12.10;;
65831;SDS011;52593;42.648;23.332;2023-11-22T12:33:04;27.52;;;12.55;;
65831;SDS011;52593;42.648;23.332;2023-11-22T12:35:32;26.92;;;12.82;;
65831;SDS011;52593;42.648;23.332;2023-11-22T12:38:01;26.70;;;13.13;;
65831;SDS011;52593;42.648;23.332;2023-11-22T12:40:33;26.80;;;13.13;;
65831;SDS011;52593;42.648;23.332;2023-11-22T12:42:59;28.10;;;12.47;;
65831;SDS011;52593;42.648;23.332;2023-11-22T12:45:26;28.23;;;11.70;;
65831;SDS011;52593;42.648;23.332;2023-11-22T12:47:54;25.17;;;11.45;;
65831;SDS011;52593;42.648;23.332;2023-11-22T12:53:10;21.88;;;10.40;;
65831;SDS011;52593;42.648;23.332;2023-11-22T12:55:38;37.60;;;16.35;;
65831;SDS011;52593;42.648;23.332;2023-11-22T12:58:07;31.27;;;16.05;;
65831;SDS011;52593;42.648;23.332;2023-11-22T13:00:32;23.50;;;12.20;;
65831;SDS011;52593;42.648;23.332;2023-11-22T13:02:58;24.30;;;12.35;;
65831;SDS011;52593;42.648;23.332;2023-11-22T13:05:24;23.53;;;11.60;;
65831;SDS011;52593;42.648;23.332;2023-11-22T13:07:50;26.20;;;13.57;;
65831;SDS011;52593;42.648;23.332;2023-11-22T13:10:16;25.95;;;12.02;;
65831;SDS011;52593;42.648;23.332;2023-11-22T13:12:45;24.70;;;12.07;;
65831;SDS011;52593;42.648;23.332;2023-11-22T13:15:11;26.80;;;12.80;;
65831;SDS011;52593;42.648;23.332;2023-11-22T13:17:37;26.98;;;11.73;;
65831;SDS011;52593;42.648;23.332;2023-11-22T13:20:06;28.20;;;12.50;;
65831;SDS011;52593;42.648;23.332;2023-11-22T13:22:39;28.02;;;12.70;;
65831;SDS011;52593;42.648;23.332;2023-11-22T13:25:06;25.17;;;11.77;;
65831;SDS011;52593;42.648;23.332;2023-11-22T13:27:47;28.83;;;12.30;;
65831;SDS011;52593;42.648;23.332;2023-11-22T13:30:16;25.70;;;11.85;;
65831;SDS011;52593;42.648;23.332;2023-11-22T13:32:45;23.23;;;12.10;;
65831;SDS011;52593;42.648;23.332;2023-11-22T13:35:12;23.80;;;11.30;;
65831;SDS011;52593;42.648;23.332;2023-11-22T13:37:46;26.87;;;12.77;;
65831;SDS011;52593;42.648;23.332;2023-11-22T13:40:16;27.20;;;12.50;;
65831;SDS011;52593;42.648;23.332;2023-11-22T13:42:43;32.85;;;13.82;;
65831;SDS011;52593;42.648;23.332;2023-11-22T13:45:13;32.10;;;15.45;;
65831;SDS011;52593;42.648;23.332;2023-11-22T13:47:45;35.72;;;16.23;;
65831;SDS011;52593;42.648;23.332;2023-11-22T13:50:12;34.90;;;16.70;;
65831;SDS011;52593;42.648;23.332;2023-11-22T13:52:46;33.53;;;16.77;;
65831;SDS011;52593;42.648;23.332;2023-11-22T13:55:16;38.47;;;18.60;;
65831;SDS011;52593;42.648;23.332;2023-11-22T13:57:48;46.58;;;20.13;;
65831;SDS011;52593;42.648;23.332;2023-11-22T14:00:15;39.90;;;19.27;;
65831;SDS011;52593;42.648;23.332;2023-11-22T14:02:47;40.83;;;20.13;;
65831;SDS011;52593;42.648;23.332;2023-11-22T14:05:16;39.40;;;18.50;;
65831;SDS011;52593;42.648;23.332;2023-11-22T14:07:42;36.97;;;18.08;;
65831;SDS011;52593;42.648;23.332;2023-11-22T14:10:09;38.88;;;18.08;;
65831;SDS011;52593;42.648;23.332;2023-11-22T14:12:36;35.35;;;17.88;;
65831;SDS011;52593;42.648;23.332;2023-11-22T14:15:02;37.83;;;16.87;;
65831;SDS011;52593;42.648;23.332;2023-11-22T14:17:31;34.83;;;16.58;;
65831;SDS011;52593;42.648;23.332;2023-11-22T14:19:57;31.10;;;15.05;;